Time;durP1;ratioP1;P1;durP2;ratioP2;P2;SDS_P1;SDS_P2;PMS_P1;PMS_P2;Temp;Humidity;BMP_temperature;BMP_pressure;BME280_temperature;BME280_humidity;BME280_pressure;Samples;Min_cycle;Max_cycle;Signal;HPM_P1;HPM_P2
2022/04/30 00:01:19;;;;;;;;;;;12.30;93.70;;;;;;5037423;28;19920;-63
2022/04/30 00:03:44;;;;;;;;;;;12.20;94.50;;;;;;5036890;28;19913;-62
2022/04/30 00:06:10;;;;;;;;;;;12.10;95.10;;;;;;5032986;28;19940;-59
2022/04/30 00:08:35;;;;;;;;;;;12.00;95.00;;;;;;5037563;28;19909;-61
2022/04/30 00:11:01;;;;;;;;;;;12.00;95.20;;;;;;5037538;28;20283;-62
2022/04/30 00:13:26;;;;;;;;;;;12.00;94.80;;;;;;5035299;28;20312;-61
2022/04/30 00:15:52;;;;;;;;;;;12.00;94.30;;;;;;5036490;28;19913;-66
2022/04/30 00:18:17;;;;;;;;;;;12.00;93.20;;;;;;5036004;28;20380;-61
2022/04/30 00:20:46;;;;;;;;;;;12.00;92.30;;;;;;5038428;28;19917;-61
2022/04/30 00:23:19;;;;;;;;;;;11.90;93.10;;;;;;5035315;28;19939;-61
2022/04/30 00:25:46;;;;;;;;;;;11.90;93.90;;;;;;5033341;28;20008;-61
2022/04/30 00:28:12;;;;;;;;;;;11.90;92.70;;;;;;5033287;28;19920;-62
2022/04/30 00:30:37;;;;;;;;;;;11.80;94.30;;;;;;5039876;28;20336;-61
2022/04/30 00:33:09;;;;;;;;;;;11.80;93.10;;;;;;5035008;28;19920;-61
2022/04/30 00:35:35;;;;;;;;;;;11.80;93.70;;;;;;5033155;28;19917;-60
2022/04/30 00:38:00;;;;;;;;;;;11.70;94.60;;;;;;5036543;28;19971;-62
2022/04/30 00:40:26;;;;;;;;;;;11.60;95.20;;;;;;5036207;28;20511;-63
2022/04/30 00:42:51;;;;;;;;;;;11.60;95.50;;;;;;5035945;28;19944;-63
2022/04/30 00:45:16;;;;;;;;;;;11.60;94.40;;;;;;5038849;28;20372;-64
2022/04/30 00:47:42;;;;;;;;;;;11.70;94.00;;;;;;5038715;28;19948;-63
2022/04/30 00:50:09;;;;;;;;;;;11.70;93.70;;;;;;5035380;28;19919;-61
2022/04/30 00:52:35;;;;;;;;;;;11.70;93.70;;;;;;5037365;28;19980;-63
2022/04/30 00:55:02;;;;;;;;;;;11.70;93.70;;;;;;5041948;28;20025;-62
2022/04/30 00:57:29;;;;;;;;;;;11.70;93.60;;;;;;5033914;28;20024;-63
2022/04/30 00:59:59;;;;;;;;;;;11.60;93.90;;;;;;5047398;28;20340;-63
2022/04/30 01:02:28;;;;;;;;;;;11.60;93.90;;;;;;5034275;28;20465;-63
2022/04/30 01:04:54;;;;;;;;;;;11.50;94.40;;;;;;5043319;28;19917;-62
2022/04/30 01:07:20;;;;;;;;;;;11.50;94.20;;;;;;5034633;28;19913;-63
2022/04/30 01:09:47;;;;;;;;;;;11.60;94.20;;;;;;5035074;28;19924;-64
2022/04/30 01:12:14;;;;;;;;;;;11.50;94.40;;;;;;5034172;28;19921;-65
2022/04/30 01:14:40;;;;;;;;;;;11.50;95.40;;;;;;5027590;28;19913;-62
2022/04/30 01:17:07;;;;;;;;;;;11.50;94.60;;;;;;5033837;28;19947;-65
2022/04/30 01:19:34;;;;;;;;;;;11.40;95.50;;;;;;5037204;28;20014;-66
2022/04/30 01:22:00;;;;;;;;;;;11.30;95.50;;;;;;5033588;28;19928;-66
2022/04/30 01:24:26;;;;;;;;;;;11.20;96.20;;;;;;5037655;28;19917;-65
2022/04/30 01:26:53;;;;;;;;;;;11.10;96.30;;;;;;5032801;28;19924;-65
2022/04/30 01:29:19;;;;;;;;;;;11.20;95.20;;;;;;5034287;28;20881;-66
2022/04/30 01:37:25;;;;;;;;;;;11.20;95.00;;;;;;5035171;28;20031;-67
2022/04/30 01:39:58;;;;;;;;;;;11.20;95.30;;;;;;5032650;28;19917;-65
2022/04/30 01:42:25;;;;;;;;;;;11.20;95.20;;;;;;5033569;28;19940;-67
2022/04/30 01:44:50;;;;;;;;;;;11.10;95.60;;;;;;5035762;28;19932;-65
2022/04/30 01:47:19;;;;;;;;;;;11.00;96.80;;;;;;5034075;28;20264;-63
2022/04/30 01:49:44;;;;;;;;;;;11.00;96.10;;;;;;5035567;28;20020;-66
2022/04/30 01:52:10;;;;;;;;;;;11.00;96.10;;;;;;5034604;28;19979;-64
2022/04/30 01:54:36;;;;;;;;;;;11.00;96.00;;;;;;5035873;28;19967;-66
2022/04/30 01:57:02;;;;;;;;;;;11.10;96.00;;;;;;5033205;28;20026;-64
2022/04/30 01:59:28;;;;;;;;;;;11.10;96.10;;;;;;5036253;28;20429;-64
2022/04/30 02:01:55;;;;;;;;;;;11.00;96.20;;;;;;5038541;28;19971;-64
2022/04/30 02:04:21;;;;;;;;;;;11.00;96.40;;;;;;5047090;28;19917;-65
2022/04/30 02:06:46;;;;;;;;;;;10.90;96.90;;;;;;5034546;28;19916;-64
2022/04/30 02:09:14;;;;;;;;;;;10.80;97.20;;;;;;5052828;28;20053;-64
2022/04/30 02:11:40;;;;;;;;;;;10.80;97.00;;;;;;5035715;28;19917;-64
2022/04/30 02:14:07;;;;;;;;;;;10.80;96.90;;;;;;5041923;28;19917;-65
2022/04/30 02:16:33;;;;;;;;;;;10.80;97.10;;;;;;5035485;28;19971;-65
2022/04/30 02:19:00;;;;;;;;;;;10.80;97.20;;;;;;5036776;28;19924;-64
2022/04/30 02:21:26;;;;;;;;;;;10.70;98.00;;;;;;5032899;28;19913;-63
2022/04/30 02:23:57;;;;;;;;;;;10.70;98.10;;;;;;5054936;28;19917;-65
2022/04/30 02:26:25;;;;;;;;;;;10.70;97.70;;;;;;5027776;28;19913;-63
2022/04/30 02:28:51;;;;;;;;;;;10.70;97.50;;;;;;5043509;28;20372;-65
2022/04/30 02:31:22;;;;;;;;;;;10.70;97.50;;;;;;5033008;28;19992;-65
2022/04/30 02:33:47;;;;;;;;;;;10.70;97.60;;;;;;5032941;28;19917;-65
2022/04/30 02:36:14;;;;;;;;;;;10.70;97.60;;;;;;5060861;28;20265;-65
2022/04/30 02:38:41;;;;;;;;;;;10.50;98.60;;;;;;5045775;28;19921;-65
2022/04/30 02:41:06;;;;;;;;;;;10.40;99.40;;;;;;5057922;28;20026;-66
2022/04/30 02:43:32;;;;;;;;;;;10.50;98.70;;;;;;5033981;28;20265;-65
2022/04/30 02:45:57;;;;;;;;;;;10.50;98.70;;;;;;5058627;28;20333;-63
2022/04/30 02:48:23;;;;;;;;;;;10.40;98.70;;;;;;5034608;28;19917;-63
2022/04/30 02:50:48;;;;;;;;;;;10.30;99.50;;;;;;5047282;28;19974;-64
2022/04/30 02:53:14;;;;;;;;;;;10.30;99.90;;;;;;5041684;28;19925;-63
2022/04/30 02:55:39;;;;;;;;;;;10.30;99.40;;;;;;5064236;28;19971;-62
2022/04/30 03:00:51;;;;;;;;;;;10.30;99.40;;;;;;5037254;28;20696;-63
2022/04/30 03:03:17;;;;;;;;;;;10.40;99.60;;;;;;5044120;28;19916;-63
2022/04/30 03:05:44;;;;;;;;;;;10.30;99.60;;;;;;5051170;28;19962;-63
2022/04/30 03:08:13;;;;;;;;;;;10.30;99.30;;;;;;5037205;28;20443;-63
2022/04/30 03:10:40;;;;;;;;;;;10.30;99.60;;;;;;5060548;28;20443;-63
2022/04/30 03:13:06;;;;;;;;;;;10.30;99.40;;;;;;5039466;28;20622;-63
2022/04/30 03:15:32;;;;;;;;;;;10.20;99.30;;;;;;5046851;28;19916;-63
2022/04/30 03:23:27;;;;;;;;;;;10.00;99.20;;;;;;5040508;28;19919;-64
2022/04/30 03:25:52;;;;;;;;;;;10.10;99.20;;;;;;5049195;28;19983;-63
2022/04/30 03:28:18;;;;;;;;;;;10.00;99.10;;;;;;5051221;28;20454;-64
2022/04/30 03:30:43;;;;;;;;;;;10.00;99.20;;;;;;5066343;28;20399;-62
2022/04/30 03:33:09;;;;;;;;;;;9.90;99.90;;;;;;5051047;28;19928;-63
2022/04/30 03:35:38;;;;;;;;;;;10.00;99.90;;;;;;5060057;28;20023;-63
2022/04/30 03:38:05;;;;;;;;;;;9.90;99.90;;;;;;5044558;28;19955;-62
2022/04/30 03:40:30;;;;;;;;;;;9.90;99.90;;;;;;5060850;28;19917;-63
2022/04/30 03:42:56;;;;;;;;;;;10.00;99.90;;;;;;5051421;28;20343;-63
2022/04/30 03:45:22;;;;;;;;;;;10.00;99.90;;;;;;5049466;28;19916;-62
2022/04/30 03:47:48;;;;;;;;;;;9.90;99.90;;;;;;5048277;28;19913;-63
2022/04/30 03:50:14;;;;;;;;;;;10.00;99.90;;;;;;5062811;28;19940;-62
2022/04/30 03:52:40;;;;;;;;;;;10.00;99.90;;;;;;5052262;28;19960;-64
2022/04/30 03:55:07;;;;;;;;;;;10.00;99.90;;;;;;5059213;28;19959;-62
2022/04/30 03:57:32;;;;;;;;;;;9.90;99.90;;;;;;5054633;28;19912;-63
2022/04/30 03:59:58;;;;;;;;;;;9.90;99.90;;;;;;5030533;28;19913;-63
2022/04/30 04:02:23;;;;;;;;;;;9.90;99.90;;;;;;5052568;28;20280;-63
2022/04/30 04:04:50;;;;;;;;;;;9.80;99.90;;;;;;5039421;28;19931;-63
2022/04/30 04:07:16;;;;;;;;;;;9.80;99.90;;;;;;5043599;28;20391;-64
2022/04/30 04:09:41;;;;;;;;;;;9.80;99.90;;;;;;5040122;28;19913;-64
2022/04/30 04:12:07;;;;;;;;;;;9.80;99.90;;;;;;5056690;28;19927;-64
2022/04/30 04:20:01;;;;;;;;;;;9.60;99.90;;;;;;5035294;28;19920;-62
2022/04/30 04:22:28;;;;;;;;;;;9.60;99.90;;;;;;5039351;28;19917;-62
2022/04/30 04:27:53;;;;;;;;;;;9.80;99.90;;;;;;5023500;28;19917;-62
2022/04/30 04:30:19;;;;;;;;;;;9.90;99.90;;;;;;5038497;28;19916;-62
2022/04/30 04:32:45;;;;;;;;;;;9.90;99.90;;;;;;5047181;28;19960;-63
2022/04/30 04:35:13;;;;;;;;;;;9.90;99.90;;;;;;5053832;28;20013;-63
2022/04/30 04:37:38;;;;;;;;;;;9.90;99.90;;;;;;5049292;28;19916;-63
2022/04/30 04:40:04;;;;;;;;;;;10.00;99.90;;;;;;5045179;28;19913;-62
2022/04/30 04:42:29;;;;;;;;;;;9.90;99.90;;;;;;5054098;28;20372;-62
2022/04/30 04:44:55;;;;;;;;;;;10.00;99.90;;;;;;5033473;28;19909;-62
2022/04/30 04:47:20;;;;;;;;;;;10.10;99.90;;;;;;5041162;28;19917;-63
2022/04/30 04:49:47;;;;;;;;;;;10.00;99.90;;;;;;5034503;28;19913;-62
2022/04/30 04:52:12;;;;;;;;;;;10.00;99.90;;;;;;5054805;28;20015;-64
2022/04/30 04:54:38;;;;;;;;;;;10.10;99.90;;;;;;5041399;28;19956;-63
2022/04/30 04:57:03;;;;;;;;;;;10.20;99.80;;;;;;5045087;28;20004;-63
2022/04/30 04:59:29;;;;;;;;;;;10.30;99.70;;;;;;5036003;28;19908;-63
2022/04/30 05:01:54;;;;;;;;;;;10.30;99.70;;;;;;5048247;28;20375;-63
2022/04/30 05:04:20;;;;;;;;;;;10.30;99.70;;;;;;5034065;28;19920;-63
2022/04/30 05:06:48;;;;;;;;;;;10.30;99.70;;;;;;5046891;28;19917;-63
2022/04/30 05:09:13;;;;;;;;;;;10.30;99.80;;;;;;5037502;28;19956;-63
2022/04/30 05:11:39;;;;;;;;;;;10.40;99.90;;;;;;5052836;28;20341;-63
2022/04/30 05:14:04;;;;;;;;;;;10.40;99.90;;;;;;5023251;28;19925;-63
2022/04/30 05:16:30;;;;;;;;;;;10.40;99.90;;;;;;5047892;28;19967;-63
2022/04/30 05:18:55;;;;;;;;;;;10.30;99.90;;;;;;5038463;28;19928;-64
2022/04/30 05:21:21;;;;;;;;;;;10.30;99.90;;;;;;5047866;28;19924;-63
2022/04/30 05:23:46;;;;;;;;;;;10.20;99.90;;;;;;5037403;28;20253;-64
2022/04/30 05:26:13;;;;;;;;;;;10.30;99.90;;;;;;5052440;28;19971;-64
2022/04/30 05:28:38;;;;;;;;;;;10.30;99.90;;;;;;5031210;28;19917;-63
2022/04/30 05:31:07;;;;;;;;;;;10.30;99.90;;;;;;5049035;28;20340;-64
2022/04/30 05:33:34;;;;;;;;;;;10.30;99.90;;;;;;5037467;28;20338;-63
2022/04/30 05:36:00;;;;;;;;;;;10.30;99.90;;;;;;5050822;28;20275;-63
2022/04/30 05:38:26;;;;;;;;;;;10.20;99.90;;;;;;5035901;28;20280;-63
2022/04/30 05:40:51;;;;;;;;;;;10.30;99.90;;;;;;5055867;28;20000;-63
2022/04/30 05:43:17;;;;;;;;;;;10.20;99.90;;;;;;5037050;28;20373;-63
2022/04/30 05:45:42;;;;;;;;;;;10.10;99.90;;;;;;5053073;28;19999;-63
2022/04/30 05:48:08;;;;;;;;;;;10.00;99.90;;;;;;5041286;28;20026;-63
2022/04/30 05:50:33;;;;;;;;;;;10.10;99.90;;;;;;5057501;28;20381;-63
2022/04/30 05:52:59;;;;;;;;;;;10.40;99.90;;;;;;5043332;28;20396;-64
2022/04/30 05:55:24;;;;;;;;;;;10.50;99.90;;;;;;5059794;28;19932;-64
2022/04/30 05:57:50;;;;;;;;;;;10.40;99.90;;;;;;5043559;28;19929;-63
2022/04/30 06:00:15;;;;;;;;;;;10.60;99.90;;;;;;5064475;28;20386;-64
2022/04/30 06:02:41;;;;;;;;;;;10.70;99.90;;;;;;5043941;28;20014;-63
2022/04/30 06:05:08;;;;;;;;;;;10.80;99.90;;;;;;5049116;28;20382;-63
2022/04/30 06:07:33;;;;;;;;;;;10.80;99.80;;;;;;5037114;28;19979;-61
2022/04/30 06:09:59;;;;;;;;;;;10.80;99.80;;;;;;5038405;28;20375;-65
2022/04/30 06:12:24;;;;;;;;;;;10.80;99.90;;;;;;5049702;28;19921;-64
2022/04/30 06:14:50;;;;;;;;;;;10.90;99.90;;;;;;5041370;28;20280;-64
2022/04/30 06:17:15;;;;;;;;;;;10.90;99.90;;;;;;5052029;28;20009;-64
2022/04/30 06:19:40;;;;;;;;;;;11.00;99.20;;;;;;5045046;28;19913;-64
2022/04/30 06:22:07;;;;;;;;;;;11.30;98.70;;;;;;5046863;28;19917;-64
2022/04/30 06:24:33;;;;;;;;;;;11.20;98.60;;;;;;5034651;28;19953;-64
2022/04/30 06:26:59;;;;;;;;;;;11.20;98.80;;;;;;5045144;28;19963;-64
2022/04/30 06:29:24;;;;;;;;;;;11.40;98.60;;;;;;5042217;28;19909;-63
2022/04/30 06:31:52;;;;;;;;;;;11.20;98.70;;;;;;5048600;28;20394;-64
2022/04/30 06:34:18;;;;;;;;;;;11.40;98.70;;;;;;5041120;28;19908;-63
2022/04/30 06:36:44;;;;;;;;;;;11.30;98.90;;;;;;5062061;28;19913;-64
2022/04/30 06:39:09;;;;;;;;;;;11.40;98.10;;;;;;5035809;28;20249;-65
2022/04/30 06:41:35;;;;;;;;;;;11.40;98.40;;;;;;5049769;28;19917;-64
2022/04/30 06:44:00;;;;;;;;;;;11.30;98.80;;;;;;5037929;28;19925;-64
2022/04/30 06:46:26;;;;;;;;;;;11.40;98.90;;;;;;5054720;28;20355;-63
2022/04/30 06:48:51;;;;;;;;;;;11.80;98.00;;;;;;5035246;28;20180;-64
2022/04/30 06:51:16;;;;;;;;;;;12.00;97.40;;;;;;5058131;28;20342;-63
2022/04/30 06:59:11;;;;;;;;;;;12.40;96.80;;;;;;5040234;28;19923;-63
2022/04/30 07:01:44;;;;;;;;;;;12.60;96.30;;;;;;5052818;28;19919;-63
2022/04/30 07:04:11;;;;;;;;;;;12.80;95.80;;;;;;5031767;28;20433;-64
2022/04/30 07:06:38;;;;;;;;;;;12.80;96.50;;;;;;5067929;28;20003;-63
2022/04/30 07:09:04;;;;;;;;;;;12.90;95.60;;;;;;5033529;28;20367;-63
2022/04/30 07:11:30;;;;;;;;;;;13.10;95.40;;;;;;5067720;28;19916;-63
2022/04/30 07:13:55;;;;;;;;;;;13.10;95.00;;;;;;5033742;28;19967;-64
2022/04/30 07:16:21;;;;;;;;;;;13.30;94.60;;;;;;5056043;28;20031;-65
2022/04/30 07:18:46;;;;;;;;;;;13.40;94.90;;;;;;5037722;28;20285;-65
2022/04/30 07:21:12;;;;;;;;;;;13.50;94.40;;;;;;5067002;28;20327;-63
2022/04/30 07:23:37;;;;;;;;;;;13.50;94.30;;;;;;5033603;28;19913;-63
2022/04/30 07:26:02;;;;;;;;;;;13.60;93.90;;;;;;5060622;28;20019;-64
2022/04/30 07:28:35;;;;;;;;;;;13.80;93.50;;;;;;5037681;28;19917;-63
2022/04/30 07:31:03;;;;;;;;;;;13.60;93.50;;;;;;5037631;28;19916;-64
2022/04/30 07:33:29;;;;;;;;;;;13.80;92.70;;;;;;5041193;28;19978;-62
2022/04/30 07:35:55;;;;;;;;;;;13.50;93.10;;;;;;5057355;28;19917;-62
2022/04/30 07:38:21;;;;;;;;;;;13.70;92.20;;;;;;5038430;28;19921;-64
2022/04/30 07:40:46;;;;;;;;;;;13.80;92.20;;;;;;5063492;28;19916;-65
2022/04/30 07:43:12;;;;;;;;;;;13.80;92.30;;;;;;5040471;28;19917;-64
2022/04/30 07:45:37;;;;;;;;;;;13.80;91.80;;;;;;5046961;28;19913;-65
2022/04/30 07:48:03;;;;;;;;;;;13.70;92.30;;;;;;5044349;28;19917;-64
2022/04/30 07:50:35;;;;;;;;;;;13.50;93.20;;;;;;5064199;28;19920;-64
2022/04/30 07:53:01;;;;;;;;;;;13.70;92.60;;;;;;5045497;28;19987;-64
2022/04/30 07:55:28;;;;;;;;;;;14.00;92.20;;;;;;5066849;28;20367;-64
2022/04/30 07:57:53;;;;;;;;;;;14.00;91.80;;;;;;5046023;28;19916;-63
2022/04/30 08:00:19;;;;;;;;;;;13.90;92.70;;;;;;5050139;28;19913;-63
2022/04/30 08:02:44;;;;;;;;;;;14.10;93.10;;;;;;5046658;28;19917;-63
2022/04/30 08:05:10;;;;;;;;;;;14.00;92.80;;;;;;5054974;28;20398;-61
2022/04/30 08:07:35;;;;;;;;;;;14.10;92.40;;;;;;5048677;28;19945;-63
2022/04/30 08:10:01;;;;;;;;;;;14.10;92.20;;;;;;5033115;28;19915;-63
2022/04/30 08:12:26;;;;;;;;;;;14.10;91.80;;;;;;5052448;28;19917;-62
2022/04/30 08:14:51;;;;;;;;;;;14.20;91.30;;;;;;5044471;28;20394;-62
2022/04/30 08:17:17;;;;;;;;;;;14.30;91.40;;;;;;5053713;28;19916;-62
2022/04/30 08:19:42;;;;;;;;;;;14.30;90.60;;;;;;5031448;28;19913;-62
2022/04/30 08:22:08;;;;;;;;;;;14.40;90.30;;;;;;5039990;28;20387;-62
2022/04/30 08:24:33;;;;;;;;;;;14.40;90.90;;;;;;5029816;28;19913;-61
2022/04/30 08:26:59;;;;;;;;;;;14.30;91.50;;;;;;5053119;28;20443;-62
2022/04/30 08:29:28;;;;;;;;;;;14.60;90.90;;;;;;5046471;28;19901;-63
2022/04/30 08:31:56;;;;;;;;;;;14.60;90.40;;;;;;5055346;28;19933;-64
2022/04/30 08:34:22;;;;;;;;;;;14.80;90.80;;;;;;5033915;28;19913;-64
2022/04/30 08:36:48;;;;;;;;;;;15.00;90.90;;;;;;5043613;28;20291;-64
2022/04/30 08:39:13;;;;;;;;;;;15.00;91.50;;;;;;5035191;28;19913;-64
2022/04/30 08:41:41;;;;;;;;;;;14.80;91.10;;;;;;5062654;28;19920;-64
2022/04/30 08:44:06;;;;;;;;;;;15.00;90.00;;;;;;5034164;28;19924;-64
2022/04/30 08:46:32;;;;;;;;;;;15.30;88.90;;;;;;5050618;28;19916;-63
2022/04/30 08:48:59;;;;;;;;;;;15.20;88.10;;;;;;5035725;28;19931;-62
2022/04/30 08:51:24;;;;;;;;;;;15.10;88.90;;;;;;5054194;28;19920;-61
2022/04/30 08:53:50;;;;;;;;;;;15.10;88.10;;;;;;5032835;28;20019;-63
2022/04/30 08:56:15;;;;;;;;;;;14.70;89.80;;;;;;5057610;28;19916;-63
2022/04/30 08:58:41;;;;;;;;;;;14.50;90.60;;;;;;5038740;28;19917;-63
2022/04/30 09:01:09;;;;;;;;;;;14.40;90.60;;;;;;5062664;28;19948;-62
2022/04/30 09:03:35;;;;;;;;;;;14.80;90.00;;;;;;5042065;28;20310;-64
2022/04/30 09:06:02;;;;;;;;;;;15.10;86.60;;;;;;5058751;28;19923;-63
2022/04/30 09:08:28;;;;;;;;;;;15.10;87.60;;;;;;5035603;28;19913;-63
2022/04/30 09:11:03;;;;;;;;;;;15.20;86.70;;;;;;5060413;28;19923;-64
2022/04/30 09:13:28;;;;;;;;;;;15.20;85.70;;;;;;5029256;28;20360;-62
2022/04/30 09:15:54;;;;;;;;;;;15.40;85.20;;;;;;5056166;28;20000;-62
2022/04/30 09:18:19;;;;;;;;;;;15.50;83.50;;;;;;5036528;28;19916;-64
2022/04/30 09:20:46;;;;;;;;;;;15.40;83.70;;;;;;5057065;28;19920;-66
2022/04/30 09:23:22;;;;;;;;;;;15.50;85.10;;;;;;5035579;28;19963;-63
2022/04/30 09:25:51;;;;;;;;;;;15.50;84.80;;;;;;5025847;28;19924;-63
2022/04/30 09:28:24;;;;;;;;;;;15.70;82.50;;;;;;5036152;28;19917;-61
2022/04/30 09:30:49;;;;;;;;;;;15.80;83.80;;;;;;5064474;28;20298;-61
2022/04/30 09:33:18;;;;;;;;;;;15.90;83.30;;;;;;5049302;28;19921;-61
2022/04/30 09:38:36;;;;;;;;;;;16.10;85.80;;;;;;5029481;28;20372;-61
2022/04/30 09:41:06;;;;;;;;;;;16.20;84.00;;;;;;5031231;28;19912;-61
2022/04/30 09:43:34;;;;;;;;;;;16.30;84.40;;;;;;5033486;28;19920;-64
2022/04/30 09:46:00;;;;;;;;;;;16.60;82.70;;;;;;5045087;28;20467;-62
2022/04/30 09:53:57;;;;;;;;;;;17.10;82.70;;;;;;5030220;28;20490;-62
2022/04/30 09:56:34;;;;;;;;;;;17.30;80.30;;;;;;5041833;28;19971;-62
2022/04/30 09:59:01;;;;;;;;;;;17.10;82.40;;;;;;5039359;28;19921;-63
2022/04/30 10:01:29;;;;;;;;;;;17.00;81.30;;;;;;5050446;28;20548;-62
2022/04/30 10:03:55;;;;;;;;;;;17.50;78.60;;;;;;5035508;28;20398;-62
2022/04/30 10:06:21;;;;;;;;;;;17.70;80.30;;;;;;5037661;28;19917;-63
2022/04/30 10:08:46;;;;;;;;;;;18.00;78.00;;;;;;5031576;28;20455;-64
2022/04/30 10:11:33;;;;;;;;;;;18.10;76.50;;;;;;5057095;28;19952;-63
2022/04/30 10:13:59;;;;;;;;;;;18.10;76.10;;;;;;5025836;28;19925;-64
2022/04/30 10:16:25;;;;;;;;;;;18.20;74.90;;;;;;5053141;28;20267;-64
2022/04/30 10:19:07;;;;;;;;;;;18.30;72.70;;;;;;5045414;28;20280;-64
2022/04/30 10:21:32;;;;;;;;;;;18.40;73.10;;;;;;5039183;28;20000;-64
2022/04/30 10:24:01;;;;;;;;;;;18.40;72.50;;;;;;5037618;28;20103;-63
2022/04/30 10:26:27;;;;;;;;;;;18.30;70.90;;;;;;5054331;28;19932;-63
2022/04/30 10:28:59;;;;;;;;;;;18.50;70.70;;;;;;5031105;28;19917;-62
2022/04/30 10:31:24;;;;;;;;;;;18.30;72.70;;;;;;5054827;28;20657;-63
2022/04/30 10:33:50;;;;;;;;;;;18.40;72.50;;;;;;5035651;28;19921;-62
2022/04/30 10:36:16;;;;;;;;;;;18.40;71.80;;;;;;5052138;28;19923;-62
2022/04/30 10:38:52;;;;;;;;;;;18.50;70.70;;;;;;5032867;28;19920;-63
2022/04/30 10:41:18;;;;;;;;;;;18.50;70.20;;;;;;5032934;28;20011;-62
2022/04/30 10:43:43;;;;;;;;;;;18.70;68.70;;;;;;5029488;28;20055;-62
2022/04/30 10:46:23;;;;;;;;;;;18.80;66.30;;;;;;5041408;28;19928;-63
2022/04/30 10:48:49;;;;;;;;;;;18.80;69.80;;;;;;5036525;28;19917;-64
2022/04/30 10:51:15;;;;;;;;;;;18.80;69.30;;;;;;5053393;28;20201;-63
2022/04/30 10:53:43;;;;;;;;;;;18.70;69.80;;;;;;5036680;28;20004;-63
2022/04/30 10:56:08;;;;;;;;;;;18.60;70.00;;;;;;5048906;28;20011;-63
2022/04/30 10:58:38;;;;;;;;;;;19.00;69.00;;;;;;5034558;28;20011;-63
2022/04/30 11:01:11;;;;;;;;;;;19.30;66.50;;;;;;5053510;28;19913;-63
2022/04/30 11:03:36;;;;;;;;;;;19.70;65.30;;;;;;5037163;28;20372;-63
2022/04/30 11:06:01;;;;;;;;;;;20.20;63.90;;;;;;5053854;28;19924;-63
2022/04/30 11:08:27;;;;;;;;;;;20.80;63.40;;;;;;5033258;28;20323;-62
2022/04/30 11:10:53;;;;;;;;;;;21.00;62.40;;;;;;5050723;28;19916;-62
2022/04/30 11:13:19;;;;;;;;;;;21.30;61.20;;;;;;5035874;28;19921;-62
2022/04/30 11:15:45;;;;;;;;;;;21.50;60.10;;;;;;5067252;28;19916;-63
2022/04/30 11:18:10;;;;;;;;;;;21.70;61.90;;;;;;5050809;28;19997;-63
2022/04/30 11:20:36;;;;;;;;;;;22.10;60.90;;;;;;5060169;28;19940;-63
2022/04/30 11:23:01;;;;;;;;;;;21.70;59.60;;;;;;5044179;28;19917;-62
2022/04/30 11:25:33;;;;;;;;;;;21.70;61.10;;;;;;5047972;28;19924;-63
2022/04/30 11:27:58;;;;;;;;;;;21.50;59.80;;;;;;5043524;28;19917;-63
2022/04/30 11:30:24;;;;;;;;;;;22.60;59.60;;;;;;5044657;28;20059;-62
2022/04/30 11:32:50;;;;;;;;;;;23.20;56.10;;;;;;5052404;28;19968;-62
2022/04/30 11:35:19;;;;;;;;;;;23.70;55.90;;;;;;5063363;28;19920;-62
2022/04/30 11:37:44;;;;;;;;;;;24.00;55.60;;;;;;5055036;28;19919;-62
2022/04/30 11:40:10;;;;;;;;;;;23.70;54.80;;;;;;5051797;28;19916;-63
2022/04/30 11:42:36;;;;;;;;;;;23.90;55.80;;;;;;5039032;28;19913;-63
2022/04/30 11:45:02;;;;;;;;;;;24.00;53.30;;;;;;5038216;28;19909;-62
2022/04/30 11:47:27;;;;;;;;;;;23.10;54.10;;;;;;5051617;28;19916;-62
2022/04/30 11:50:22;;;;;;;;;;;22.50;56.30;;;;;;5034373;28;20280;-62
2022/04/30 11:52:48;;;;;;;;;;;22.00;55.10;;;;;;5021078;28;19951;-62
2022/04/30 11:55:15;;;;;;;;;;;22.30;57.00;;;;;;5050352;28;19916;-62
2022/04/30 11:57:41;;;;;;;;;;;22.20;56.40;;;;;;5037409;28;19921;-63
2022/04/30 12:00:07;;;;;;;;;;;22.80;53.90;;;;;;5044551;28;19916;-63
2022/04/30 12:02:32;;;;;;;;;;;22.50;55.40;;;;;;5052143;28;19924;-63
2022/04/30 12:05:02;;;;;;;;;;;22.20;56.20;;;;;;5047455;28;19913;-62
2022/04/30 12:07:34;;;;;;;;;;;22.00;56.60;;;;;;5041168;28;19920;-63
2022/04/30 12:09:59;;;;;;;;;;;22.00;57.20;;;;;;5033030;28;20579;-63
2022/04/30 12:12:25;;;;;;;;;;;23.00;55.20;;;;;;5055088;28;19970;-63
2022/04/30 12:14:51;;;;;;;;;;;23.70;53.70;;;;;;5030855;28;19956;-63
2022/04/30 12:17:17;;;;;;;;;;;23.50;55.20;;;;;;5054138;28;19962;-63
2022/04/30 12:25:14;;;;;;;;;;;24.30;51.70;;;;;;5034385;28;20429;-63
2022/04/30 12:27:41;;;;;;;;;;;25.90;51.20;;;;;;5052961;28;20200;-63
2022/04/30 12:30:09;;;;;;;;;;;26.90;47.90;;;;;;5051717;28;19921;-63
2022/04/30 12:32:45;;;;;;;;;;;26.70;47.40;;;;;;5062598;28;19924;-64
2022/04/30 12:35:12;;;;;;;;;;;26.60;46.80;;;;;;5066316;28;20528;-63
2022/04/30 12:37:37;;;;;;;;;;;26.30;48.20;;;;;;5048688;28;19963;-63
2022/04/30 12:40:03;;;;;;;;;;;26.10;46.90;;;;;;5032763;28;20310;-62
2022/04/30 12:42:28;;;;;;;;;;;25.80;46.50;;;;;;5054064;28;19917;-63
2022/04/30 12:44:54;;;;;;;;;;;25.60;45.40;;;;;;5033769;28;19921;-66
2022/04/30 12:47:20;;;;;;;;;;;25.20;45.90;;;;;;5041500;28;19952;-62
2022/04/30 12:49:45;;;;;;;;;;;25.00;46.00;;;;;;5042813;28;19909;-63
2022/04/30 12:52:11;;;;;;;;;;;25.10;45.70;;;;;;5055688;28;19929;-64
2022/04/30 12:54:36;;;;;;;;;;;25.50;45.70;;;;;;5041267;28;19916;-63
2022/04/30 12:57:07;;;;;;;;;;;25.70;47.10;;;;;;5047007;28;19994;-63
2022/04/30 12:59:32;;;;;;;;;;;24.80;47.20;;;;;;5036250;28;19912;-61
2022/04/30 13:01:58;;;;;;;;;;;24.70;46.30;;;;;;5048195;28;20318;-62
2022/04/30 13:04:23;;;;;;;;;;;24.40;46.50;;;;;;5035072;28;19920;-63
2022/04/30 13:06:49;;;;;;;;;;;24.30;46.60;;;;;;5046029;28;20310;-62
2022/04/30 13:14:44;;;;;;;;;;;23.90;47.40;;;;;;5037443;28;19920;-62
2022/04/30 13:17:11;;;;;;;;;;;23.90;47.60;;;;;;5051243;28;19917;-61
2022/04/30 13:19:39;;;;;;;;;;;23.70;46.70;;;;;;5040844;28;19913;-61
2022/04/30 13:22:04;;;;;;;;;;;23.30;47.00;;;;;;5040638;28;19921;-61
2022/04/30 13:24:30;;;;;;;;;;;23.10;47.40;;;;;;5044462;28;20707;-62
2022/04/30 13:26:57;;;;;;;;;;;23.00;46.40;;;;;;5057480;28;20054;-61
2022/04/30 13:29:22;;;;;;;;;;;22.60;48.80;;;;;;5036968;28;20455;-62
2022/04/30 13:31:48;;;;;;;;;;;22.00;48.70;;;;;;5042351;28;19951;-62
2022/04/30 13:34:14;;;;;;;;;;;21.60;49.10;;;;;;5032901;28;19917;-71
2022/04/30 13:36:40;;;;;;;;;;;21.70;48.80;;;;;;5043357;28;19917;-71
2022/04/30 13:39:06;;;;;;;;;;;21.60;49.40;;;;;;5034963;28;19941;-71
2022/04/30 13:41:31;;;;;;;;;;;22.40;51.30;;;;;;5054678;28;19916;-71
2022/04/30 13:43:57;;;;;;;;;;;23.50;47.50;;;;;;5052403;28;19954;-71
2022/04/30 13:46:23;;;;;;;;;;;24.50;45.90;;;;;;5044614;28;19917;-71
2022/04/30 13:48:51;;;;;;;;;;;24.80;45.50;;;;;;5032397;28;20058;-72
2022/04/30 13:51:17;;;;;;;;;;;24.30;46.00;;;;;;5051557;28;20406;-71
2022/04/30 13:53:44;;;;;;;;;;;24.90;44.20;;;;;;5039876;28;19928;-76
2022/04/30 13:56:10;;;;;;;;;;;25.00;44.50;;;;;;5034845;28;20398;-70
2022/04/30 13:58:35;;;;;;;;;;;24.80;44.80;;;;;;5047407;28;20295;-71
2022/04/30 14:01:00;;;;;;;;;;;24.50;45.40;;;;;;5026474;28;20124;-70
2022/04/30 14:03:27;;;;;;;;;;;24.30;44.90;;;;;;5056150;28;19923;-68
2022/04/30 14:05:53;;;;;;;;;;;24.10;44.90;;;;;;5036432;28;20014;-68
2022/04/30 14:08:19;;;;;;;;;;;23.70;45.50;;;;;;5048789;28;19952;-66
2022/04/30 14:10:44;;;;;;;;;;;22.60;46.50;;;;;;5036693;28;19909;-65
2022/04/30 14:15:54;;;;;;;;;;;22.80;48.40;;;;;;5026163;28;19968;-68
2022/04/30 14:18:21;;;;;;;;;;;24.40;48.30;;;;;;5057832;28;19917;-64
2022/04/30 14:20:46;;;;;;;;;;;26.10;46.20;;;;;;5027104;28;20288;-64
2022/04/30 14:23:12;;;;;;;;;;;27.20;43.00;;;;;;5055635;28;20190;-65
2022/04/30 14:25:42;;;;;;;;;;;27.40;41.10;;;;;;5034137;28;20008;-66
2022/04/30 14:28:09;;;;;;;;;;;27.60;41.50;;;;;;5042728;28;19924;-70
2022/04/30 14:30:34;;;;;;;;;;;27.80;41.00;;;;;;5033651;28;19925;-67
2022/04/30 14:33:03;;;;;;;;;;;28.30;40.30;;;;;;5054056;28;19924;-66
2022/04/30 14:35:29;;;;;;;;;;;28.40;40.70;;;;;;5030816;28;19916;-67
2022/04/30 14:37:54;;;;;;;;;;;28.60;38.70;;;;;;5050386;28;19940;-68
2022/04/30 14:40:20;;;;;;;;;;;28.00;39.20;;;;;;5034607;28;19921;-68
2022/04/30 14:42:47;;;;;;;;;;;27.20;40.10;;;;;;5051779;28;19913;-67
2022/04/30 14:45:14;;;;;;;;;;;26.40;40.60;;;;;;5046058;28;19924;-67
2022/04/30 14:47:41;;;;;;;;;;;25.50;40.60;;;;;;5061029;28;20018;-68
2022/04/30 14:50:07;;;;;;;;;;;24.70;42.00;;;;;;5037776;28;19924;-67
2022/04/30 14:52:32;;;;;;;;;;;23.90;42.60;;;;;;5034336;28;19925;-69
2022/04/30 14:54:58;;;;;;;;;;;22.90;43.20;;;;;;5042113;28;19923;-68
2022/04/30 14:57:24;;;;;;;;;;;22.40;45.00;;;;;;5058932;28;19917;-65
2022/04/30 14:59:49;;;;;;;;;;;22.20;44.60;;;;;;5043978;28;19990;-66
2022/04/30 15:02:14;;;;;;;;;;;22.00;44.70;;;;;;5051908;28;19924;-67
2022/04/30 15:04:40;;;;;;;;;;;21.60;44.60;;;;;;5044386;28;20145;-67